createdAt,value
2018-05-03T00:00:42.791Z,101043.16
2018-05-03T00:03:10.527Z,101031.42
2018-05-03T00:05:38.138Z,101028.75
2018-05-03T00:08:05.781Z,101029.14
2018-05-03T00:10:33.415Z,101028.67
2018-05-03T00:13:01.053Z,101023.00
2018-05-03T00:15:28.739Z,101015.20
2018-05-03T00:17:56.373Z,101023.83
2018-05-03T00:20:24.057Z,101018.63
2018-05-03T00:22:51.732Z,101020.33
2018-05-03T00:25:19.390Z,101016.47
2018-05-03T00:27:47.019Z,101019.93
2018-05-03T00:30:14.646Z,101020.80
2018-05-03T00:32:42.370Z,101009.55
2018-05-03T00:35:10.035Z,101011.71
2018-05-03T00:37:37.695Z,101023.44
2018-05-03T00:40:05.310Z,101023.00
2018-05-03T00:42:32.951Z,101020.02
2018-05-03T00:45:00.571Z,101031.74
2018-05-03T00:47:28.226Z,101032.64
2018-05-03T00:49:55.916Z,101033.12
2018-05-03T00:52:23.579Z,101037.48
2018-05-03T00:54:51.244Z,101033.16
2018-05-03T00:57:20.637Z,101022.33
2018-05-03T00:59:48.274Z,101031.42
2018-05-03T01:02:15.887Z,101036.63
2018-05-03T01:04:43.527Z,101040.48
2018-05-03T01:07:11.139Z,101040.91
2018-05-03T01:09:38.774Z,101032.69
2018-05-03T01:12:06.415Z,101039.61
2018-05-03T01:14:34.049Z,101035.72
2018-05-03T01:17:01.679Z,101030.09
2018-05-03T01:19:29.315Z,101029.65
2018-05-03T01:21:56.932Z,101032.22
2018-05-03T01:24:24.566Z,101038.70
2018-05-03T01:26:52.178Z,101038.67
2018-05-03T01:29:19.809Z,101037.33
2018-05-03T01:31:47.503Z,101047.33
2018-05-03T01:34:15.133Z,101042.56
2018-05-03T01:36:42.831Z,101031.78
2018-05-03T01:39:10.498Z,101037.84
2018-05-03T01:41:38.153Z,101040.87
2018-05-03T01:44:05.817Z,101047.36
2018-05-03T01:46:33.423Z,101050.83
2018-05-03T01:49:01.145Z,101052.16
2018-05-03T01:51:28.749Z,101049.14
2018-05-03T01:53:56.474Z,101044.38
2018-05-03T01:56:24.111Z,101040.87
2018-05-03T01:58:51.735Z,101035.20
2018-05-03T02:01:19.372Z,101035.59
2018-05-03T02:03:46.982Z,101031.62
2018-05-03T02:06:14.693Z,101031.97
2018-05-03T02:08:42.346Z,101027.56
2018-05-03T02:11:10.012Z,101025.35
2018-05-03T02:13:37.627Z,101021.81
2018-05-03T02:16:05.265Z,101026.52
2018-05-03T02:18:32.938Z,101027.34
2018-05-03T02:21:00.563Z,101022.08
2018-05-03T02:23:28.214Z,101017.70
2018-05-03T02:25:55.851Z,101010.73
2018-05-03T02:28:23.539Z,101010.27
2018-05-03T02:30:51.211Z,101010.69
2018-05-03T02:33:18.827Z,101007.15
2018-05-03T02:35:46.472Z,101003.60
2018-05-03T02:38:14.203Z,101007.41
2018-05-03T02:40:41.847Z,101005.59
2018-05-03T02:43:09.467Z,100996.02
2018-05-03T02:45:37.117Z,101000.26
2018-05-03T02:48:04.737Z,100990.23
2018-05-03T02:50:32.388Z,100981.52
2018-05-03T02:53:00.028Z,100981.00
2018-05-03T02:55:27.670Z,100978.75
2018-05-03T02:58:12.734Z,100981.25
2018-05-03T03:00:57.856Z,100980.72
2018-05-03T03:03:43.019Z,100989.70
2018-05-03T03:06:28.214Z,100991.34
2018-05-03T03:09:13.418Z,100991.67
2018-05-03T03:11:55.214Z,100979.87
2018-05-03T03:14:40.306Z,100977.19
2018-05-03T03:17:25.401Z,100977.08
2018-05-03T03:20:10.543Z,100975.30
2018-05-03T03:22:55.735Z,100975.63
2018-05-03T03:25:39.034Z,100975.52
2018-05-03T03:28:24.383Z,100973.64
2018-05-03T03:31:09.634Z,100973.98
2018-05-03T03:33:49.205Z,100977.36
2018-05-03T03:36:28.532Z,100983.31
2018-05-03T03:39:07.991Z,100995.30
2018-05-03T03:41:39.383Z,100995.23
2018-05-03T03:44:18.906Z,100986.98
2018-05-03T03:46:46.633Z,100981.75
2018-05-03T03:49:14.267Z,100970.04
2018-05-03T03:51:41.880Z,100966.97
2018-05-03T03:54:09.514Z,100974.73
2018-05-03T03:56:37.182Z,100972.56
2018-05-03T03:59:04.904Z,100978.56
2018-05-03T04:01:32.507Z,100979.41
2018-05-03T04:04:00.179Z,100981.58
2018-05-03T04:06:27.787Z,100985.47
2018-05-03T04:08:55.438Z,100992.42
2018-05-03T04:11:23.046Z,100999.77
2018-05-03T04:13:50.663Z,101003.66
2018-05-03T04:16:19.315Z,101017.95
2018-05-03T04:18:58.845Z,101019.73
2018-05-03T04:21:38.382Z,101014.61
2018-05-03T04:24:18.026Z,101019.42
2018-05-03T04:26:45.692Z,101014.78
2018-05-03T04:29:13.306Z,101012.25
2018-05-03T04:31:41.010Z,101020.14
2018-05-03T04:34:08.679Z,101011.65
2018-05-03T04:36:36.316Z,101018.62
2018-05-03T04:39:03.943Z,101019.16
2018-05-03T04:41:31.663Z,101025.70
2018-05-03T04:43:59.283Z,101014.61
2018-05-03T04:46:26.922Z,101013.41
2018-05-03T04:48:54.646Z,101013.96
2018-05-03T04:51:22.289Z,101008.09
2018-05-03T04:53:49.972Z,101006.47
2018-05-03T04:56:17.642Z,101007.05
2018-05-03T04:58:45.259Z,101015.03
2018-05-03T05:01:12.898Z,101017.81
2018-05-03T05:03:40.523Z,101015.41
2018-05-03T05:06:08.160Z,101013.47
2018-05-03T05:08:35.787Z,101008.92
2018-05-03T05:11:03.412Z,101017.83
2018-05-03T05:13:31.042Z,101011.94
2018-05-03T05:15:58.659Z,101012.92
2018-05-03T05:18:26.399Z,101023.47
2018-05-03T05:20:54.010Z,101045.72
2018-05-03T05:23:21.722Z,101052.84
2018-05-03T05:25:49.335Z,101049.12
2018-05-03T05:28:16.974Z,101055.84
2018-05-03T05:30:44.710Z,101052.48
2018-05-03T05:33:12.279Z,101059.55
2018-05-03T05:35:39.890Z,101060.52
2018-05-03T05:38:07.602Z,101063.25
2018-05-03T05:40:35.214Z,101066.88
2018-05-03T05:43:02.854Z,101070.50
2018-05-03T05:45:30.482Z,101078.06
2018-05-03T05:47:58.119Z,101080.78
2018-05-03T05:50:25.740Z,101081.27
2018-05-03T05:52:53.379Z,101080.86
2018-05-03T05:55:21.002Z,101085.22
2018-05-03T05:57:48.647Z,101081.34
2018-05-03T06:00:16.258Z,101081.39
2018-05-03T06:02:43.936Z,101082.78
2018-05-03T06:05:11.588Z,101074.55
2018-05-03T06:07:39.231Z,101066.77
2018-05-03T06:10:06.851Z,101072.46
2018-05-03T06:12:34.575Z,101079.09
2018-05-03T06:15:02.377Z,101084.04
2018-05-03T06:17:30.102Z,101079.41
2018-05-03T06:19:57.762Z,101066.48
2018-05-03T06:22:25.415Z,101069.66
2018-05-03T06:24:53.087Z,101064.10
2018-05-03T06:27:20.703Z,101075.52
2018-05-03T06:29:48.343Z,101075.61
2018-05-03T06:32:15.975Z,101089.19
2018-05-03T06:34:43.634Z,101092.30
2018-05-03T06:37:11.243Z,101092.77
2018-05-03T06:39:38.870Z,101091.91
2018-05-03T06:42:06.494Z,101095.43
2018-05-03T06:44:34.143Z,101098.05
2018-05-03T06:47:01.842Z,101099.36
2018-05-03T06:49:29.515Z,101099.80
2018-05-03T06:51:57.267Z,101111.16
2018-05-03T06:54:24.931Z,101109.44
2018-05-03T06:56:53.111Z,101111.14
2018-05-03T06:59:20.869Z,101104.57
2018-05-03T07:01:48.481Z,101108.00
2018-05-03T07:04:16.249Z,101095.27
2018-05-03T07:06:43.866Z,101106.52
2018-05-03T07:09:11.498Z,101103.42
2018-05-03T07:11:39.106Z,101111.60
2018-05-03T07:14:06.741Z,101108.42
2018-05-03T07:16:34.350Z,101107.92
2018-05-03T07:19:01.983Z,101113.93
2018-05-03T07:21:29.629Z,101116.87
2018-05-03T07:23:57.301Z,101119.39
2018-05-03T07:26:24.958Z,101114.84
2018-05-03T07:28:52.591Z,101118.66
2018-05-03T07:31:20.207Z,101115.05
2018-05-03T07:33:47.851Z,101116.28
2018-05-03T07:36:15.463Z,101114.47
2018-05-03T07:38:43.191Z,101123.11
2018-05-03T07:41:10.835Z,101126.48
2018-05-03T07:43:38.447Z,101129.38
2018-05-03T07:46:06.078Z,101138.11
2018-05-03T07:48:33.709Z,101150.39
2018-05-03T07:51:01.379Z,101168.41
2018-05-03T07:53:29.059Z,101166.67
2018-05-03T07:55:56.694Z,101162.36
2018-05-03T07:58:24.375Z,101162.41
2018-05-03T08:00:52.037Z,101164.16
2018-05-03T08:03:19.646Z,101167.30
2018-05-03T08:05:47.283Z,101170.36
2018-05-03T08:08:14.914Z,101168.61
2018-05-03T08:10:42.550Z,101169.52
2018-05-03T08:13:10.247Z,101173.05
2018-05-03T08:15:37.907Z,101177.47
2018-05-03T08:18:05.519Z,101178.38
2018-05-03T08:20:33.231Z,101185.00
2018-05-03T08:23:00.894Z,101192.03
2018-05-03T08:25:28.531Z,101201.28
2018-05-03T08:27:56.151Z,101196.98
2018-05-03T08:30:23.789Z,101201.47
2018-05-03T08:32:51.448Z,101206.36
2018-05-03T08:35:19.093Z,101216.06
2018-05-03T08:37:46.714Z,101220.91
2018-05-03T08:40:14.350Z,101222.69
2018-05-03T08:42:41.970Z,101228.36
2018-05-03T08:45:09.606Z,101241.46
2018-05-03T08:47:37.219Z,101244.50
2018-05-03T08:50:04.876Z,101240.07
2018-05-03T08:52:32.540Z,101247.88
2018-05-03T08:55:00.153Z,101250.84
2018-05-03T08:57:27.798Z,101258.14
2018-05-03T08:59:55.429Z,101259.33
2018-05-03T09:02:23.071Z,101260.53
2018-05-03T09:04:50.690Z,101268.30
2018-05-03T09:07:18.331Z,101261.61
2018-05-03T09:09:45.942Z,101261.44
2018-05-03T09:12:13.641Z,101263.55
2018-05-03T09:14:41.348Z,101275.23
2018-05-03T09:17:09.067Z,101273.33
2018-05-03T09:19:36.727Z,101271.09
2018-05-03T09:22:04.367Z,101270.56
2018-05-03T09:24:32.055Z,101267.52
2018-05-03T09:26:59.714Z,101276.27
2018-05-03T09:29:27.380Z,101270.54
2018-05-03T09:31:55.030Z,101270.56
2018-05-03T09:34:22.647Z,101277.54
2018-05-03T09:36:50.282Z,101275.81
2018-05-03T09:39:17.895Z,101281.52
2018-05-03T09:41:45.526Z,101282.84
2018-05-03T09:44:13.251Z,101293.83
2018-05-03T09:46:40.892Z,101284.63
2018-05-03T09:49:08.506Z,101291.20
2018-05-03T09:51:36.234Z,101290.27
2018-05-03T09:54:03.847Z,101289.39
2018-05-03T09:56:31.563Z,101294.16
2018-05-03T09:58:59.173Z,101299.81
2018-05-03T10:01:26.858Z,101304.61
2018-05-03T10:03:54.551Z,101302.36
2018-05-03T10:06:22.320Z,101303.23
2018-05-03T10:08:49.958Z,101307.16
2018-05-03T10:11:17.574Z,101313.70
2018-05-03T10:13:45.212Z,101318.88
2018-05-03T10:16:12.863Z,101317.94
2018-05-03T10:18:40.507Z,101314.31
2018-05-03T10:21:08.143Z,101318.13
2018-05-03T10:23:35.850Z,101326.76
2018-05-03T10:26:03.466Z,101335.37
2018-05-03T10:28:31.111Z,101338.03
2018-05-03T10:30:58.723Z,101349.94
2018-05-03T10:33:26.363Z,101357.27
2018-05-03T10:35:54.205Z,101348.80
2018-05-03T10:38:21.819Z,101359.33
2018-05-03T10:40:49.490Z,101361.09
2018-05-03T10:43:17.137Z,101363.73
2018-05-03T10:45:44.814Z,101377.41
2018-05-03T10:48:12.451Z,101375.70
2018-05-03T10:50:40.236Z,101387.19
2018-05-03T10:53:07.870Z,101385.59
2018-05-03T10:55:35.490Z,101397.20
2018-05-03T10:58:03.225Z,101398.61
2018-05-03T11:00:30.899Z,101394.69
2018-05-03T11:02:58.650Z,101402.16
2018-05-03T11:05:26.296Z,101409.10
2018-05-03T11:07:53.976Z,101409.82
2018-05-03T11:10:21.647Z,101416.71
2018-05-03T11:12:49.291Z,101416.14
2018-05-03T11:15:16.908Z,101431.72
2018-05-03T11:17:44.634Z,101423.20
2018-05-03T11:20:12.246Z,101442.12
2018-05-03T11:22:39.950Z,101436.48
2018-05-03T11:25:07.591Z,101440.56
2018-05-03T11:27:35.202Z,101448.61
2018-05-03T11:30:02.946Z,101447.39
2018-05-03T11:32:30.562Z,101453.95
2018-05-03T11:34:58.274Z,101454.44
2018-05-03T11:37:25.897Z,101470.34
2018-05-03T11:39:53.596Z,101498.61
2018-05-03T11:42:21.251Z,101499.23
2018-05-03T11:44:48.890Z,101498.94
2018-05-03T11:47:16.587Z,101498.58
2018-05-03T11:49:44.227Z,101515.74
2018-05-03T11:52:11.837Z,101512.31
2018-05-03T11:54:39.566Z,101514.53
2018-05-03T11:57:07.396Z,101519.32
2018-05-03T11:59:35.035Z,101523.27
2018-05-03T12:02:02.659Z,101537.67
2018-05-03T12:04:30.290Z,101527.94
2018-05-03T12:06:57.899Z,101530.53
2018-05-03T12:09:25.541Z,101534.03
2018-05-03T12:11:53.150Z,101538.39
2018-05-03T12:14:20.779Z,101545.05
2018-05-03T12:16:48.394Z,101542.98
2018-05-03T12:19:16.091Z,101550.98
2018-05-03T12:21:43.754Z,101560.27
2018-05-03T12:24:11.383Z,101560.36
2018-05-03T12:26:38.983Z,101565.66
2018-05-03T12:29:06.623Z,101566.54
2018-05-03T12:31:34.231Z,101574.88
2018-05-03T12:34:01.863Z,101573.98
2018-05-03T12:36:29.527Z,101572.27
2018-05-03T12:38:57.191Z,101574.03
2018-05-03T12:41:24.817Z,101583.65
2018-05-03T12:43:52.639Z,101586.75
2018-05-03T12:46:20.271Z,101595.53
2018-05-03T12:48:47.935Z,101596.41
2018-05-03T12:51:15.607Z,101598.20
2018-05-03T12:53:43.271Z,101594.73
2018-05-03T12:56:10.935Z,101592.13
2018-05-03T12:58:38.539Z,101591.29
2018-05-03T13:01:06.166Z,101596.98
2018-05-03T13:03:33.771Z,101603.99
2018-05-03T13:06:01.407Z,101600.92
2018-05-03T13:08:29.035Z,101602.70
2018-05-03T13:10:56.666Z,101606.20
2018-05-03T13:13:24.276Z,101603.58
2018-05-03T13:15:51.929Z,101613.22
2018-05-03T13:18:19.550Z,101611.45
2018-05-03T13:20:47.184Z,101611.92
2018-05-03T13:23:14.815Z,101608.84
2018-05-03T13:25:42.438Z,101618.04
2018-05-03T13:28:10.138Z,101615.41
2018-05-03T13:30:37.789Z,101618.90
2018-05-03T13:33:05.555Z,101614.98
2018-05-03T13:35:33.223Z,101614.11
2018-05-03T13:38:00.836Z,101625.05
2018-05-03T13:40:28.467Z,101622.00
2018-05-03T13:42:56.069Z,101618.50
2018-05-03T13:45:23.710Z,101623.76
2018-05-03T13:47:51.325Z,101627.24
2018-05-03T13:50:18.995Z,101632.94
2018-05-03T13:52:46.626Z,101632.52
2018-05-03T13:55:14.234Z,101633.81
2018-05-03T13:57:41.885Z,101628.58
2018-05-03T14:00:09.503Z,101631.62
2018-05-03T14:02:37.147Z,101643.02
2018-05-03T14:05:05.258Z,101633.36
2018-05-03T14:07:32.993Z,101652.61
2018-05-03T14:10:00.603Z,101648.67
2018-05-03T14:12:28.226Z,101647.37
2018-05-03T14:14:55.933Z,101646.03
2018-05-03T14:17:23.571Z,101641.25
2018-05-03T14:19:51.179Z,101638.19
2018-05-03T14:22:18.811Z,101629.87
2018-05-03T14:24:46.423Z,101635.53
2018-05-03T14:27:14.129Z,101635.55
2018-05-03T14:29:41.682Z,101640.79
2018-05-03T14:32:09.446Z,101639.05
2018-05-03T14:34:37.050Z,101648.25
2018-05-03T14:37:04.687Z,101644.30
2018-05-03T14:39:32.346Z,101653.48
2018-05-03T14:42:00.007Z,101653.47
2018-05-03T14:44:27.677Z,101652.61
2018-05-03T14:46:55.303Z,101661.77
2018-05-03T14:49:22.998Z,101662.67
2018-05-03T14:51:50.630Z,101664.42
2018-05-03T14:54:18.238Z,101670.97
2018-05-03T14:56:45.862Z,101668.32
2018-05-03T14:59:13.471Z,101660.02
2018-05-03T15:01:41.079Z,101648.66
2018-05-03T15:04:08.723Z,101655.65
2018-05-03T15:06:36.378Z,101656.53
2018-05-03T15:09:03.973Z,101663.95
2018-05-03T15:11:31.579Z,101667.02
2018-05-03T15:13:59.315Z,101681.45
2018-05-03T15:16:27.023Z,101680.59
2018-05-03T15:18:54.631Z,101673.58
2018-05-03T15:21:22.251Z,101687.16
2018-05-03T15:23:49.882Z,101695.45
2018-05-03T15:26:17.487Z,101694.11
2018-05-03T15:28:45.867Z,101701.11
2018-05-03T15:31:13.514Z,101701.52
2018-05-03T15:33:41.172Z,101701.08
2018-05-03T15:36:08.791Z,101710.70
2018-05-03T15:38:36.423Z,101709.38
2018-05-03T15:41:04.031Z,101714.61
2018-05-03T15:43:31.657Z,101712.00
2018-05-03T15:45:59.339Z,101723.33
2018-05-03T15:48:26.971Z,101724.22
2018-05-03T15:50:54.592Z,101733.79
2018-05-03T15:53:22.219Z,101728.56
2018-05-03T15:55:49.827Z,101735.10
2018-05-03T15:58:17.463Z,101735.98
2018-05-03T16:00:45.083Z,101727.22
2018-05-03T16:03:12.714Z,101739.42
2018-05-03T16:05:40.331Z,101746.41
2018-05-03T16:08:08.054Z,101743.34
2018-05-03T16:10:35.654Z,101748.14
2018-05-03T16:13:03.318Z,101750.34
2018-05-03T16:15:30.978Z,101746.38
2018-05-03T16:17:58.591Z,101746.38
2018-05-03T16:20:26.248Z,101757.31
2018-05-03T16:22:53.849Z,101750.30
2018-05-03T16:25:21.479Z,101757.31
2018-05-03T16:27:49.084Z,101760.36
2018-05-03T16:30:16.759Z,101763.41
2018-05-03T16:32:44.415Z,101762.17
2018-05-03T16:35:12.051Z,101763.11
2018-05-03T16:37:39.654Z,101758.39
2018-05-03T16:40:07.283Z,101760.17
2018-05-03T16:42:34.889Z,101756.75
2018-05-03T16:45:02.623Z,101760.70
2018-05-03T16:47:30.386Z,101757.22
2018-05-03T16:49:58.014Z,101759.40
2018-05-03T16:52:25.634Z,101768.56
2018-05-03T16:54:53.273Z,101769.88
2018-05-03T16:57:20.876Z,101772.92
2018-05-03T16:59:48.610Z,101772.89
2018-05-03T17:02:16.210Z,101772.92
2018-05-03T17:04:43.842Z,101777.70
2018-05-03T17:07:11.446Z,101775.48
2018-05-03T17:09:39.145Z,101785.98
2018-05-03T17:12:06.811Z,101785.50
2018-05-03T17:14:34.444Z,101791.22
2018-05-03T17:17:02.098Z,101795.20
2018-05-03T17:19:29.803Z,101794.81
2018-05-03T17:21:57.532Z,101799.21
2018-05-03T17:24:25.110Z,101795.28
2018-05-03T17:26:52.744Z,101809.26
2018-05-03T17:29:20.378Z,101810.49
2018-05-03T17:31:48.107Z,101815.62
2018-05-03T17:34:15.778Z,101818.55
2018-05-03T17:36:43.448Z,101820.95
2018-05-03T17:39:11.136Z,101822.97
2018-05-03T17:41:38.711Z,101832.39
2018-05-03T17:44:06.323Z,101838.28
2018-05-03T17:46:33.964Z,101837.67
2018-05-03T17:49:01.747Z,101851.45
2018-05-03T17:51:29.419Z,101849.47
2018-05-03T17:53:57.027Z,101861.48
2018-05-03T17:56:24.654Z,101859.55
2018-05-03T17:58:52.266Z,101859.38
2018-05-03T18:01:19.976Z,101864.53
2018-05-03T18:03:47.586Z,101864.42
2018-05-03T18:06:15.222Z,101866.02
2018-05-03T18:08:42.847Z,101864.12
2018-05-03T18:11:10.482Z,101868.75
2018-05-03T18:13:38.165Z,101869.86
2018-05-03T18:16:05.817Z,101874.01
2018-05-03T18:18:33.498Z,101889.97
2018-05-03T18:21:01.163Z,101894.19
2018-05-03T18:23:28.818Z,101892.75
2018-05-03T18:25:56.483Z,101890.87
2018-05-03T18:28:24.765Z,101899.05
2018-05-03T18:30:52.423Z,101902.38
2018-05-03T18:33:20.033Z,101906.16
2018-05-03T18:35:47.714Z,101907.73
2018-05-03T18:38:15.405Z,101917.16
2018-05-03T18:40:43.070Z,101914.44
2018-05-03T18:43:10.734Z,101917.33
2018-05-03T18:45:38.347Z,101920.69
2018-05-03T18:48:06.058Z,101924.45
2018-05-03T18:50:33.659Z,101934.33
2018-05-03T18:53:01.297Z,101931.57
2018-05-03T18:55:28.903Z,101938.89
2018-05-03T18:57:56.611Z,101941.44
2018-05-03T19:00:24.282Z,101945.69
2018-05-03T19:02:51.934Z,101938.63
2018-05-03T19:05:19.547Z,101938.02
2018-05-03T19:07:47.439Z,101948.28
2018-05-03T19:10:15.074Z,101951.15
2018-05-03T19:12:42.731Z,101957.97
2018-05-03T19:15:10.335Z,101962.61
2018-05-03T19:17:37.967Z,101968.95
2018-05-03T19:20:05.571Z,101976.63
2018-05-03T19:22:33.199Z,101972.10
2018-05-03T19:25:00.810Z,101982.39
2018-05-03T19:27:28.454Z,101983.56
2018-05-03T19:29:56.119Z,101986.45
2018-05-03T19:32:23.746Z,101993.21
2018-05-03T19:34:51.438Z,102000.50
2018-05-03T19:37:19.039Z,101995.12
2018-05-03T19:39:46.670Z,101998.92
2018-05-03T19:42:14.314Z,101999.60
2018-05-03T19:44:41.943Z,102003.37
2018-05-03T19:47:09.659Z,101994.99
2018-05-03T19:49:37.319Z,102004.01
2018-05-03T19:52:04.923Z,101997.81
2018-05-03T19:54:32.557Z,101997.22
2018-05-03T19:57:00.207Z,102002.23
2018-05-03T19:59:27.835Z,102008.08
2018-05-03T20:01:55.532Z,102005.31
2018-05-03T20:04:23.186Z,102006.36
2018-05-03T20:06:50.855Z,102004.86
2018-05-03T20:09:18.487Z,102004.62
2018-05-03T20:11:46.175Z,102009.20
2018-05-03T20:14:13.806Z,102015.48
2018-05-03T20:16:41.583Z,102017.80
2018-05-03T20:19:09.267Z,102015.39
2018-05-03T20:21:36.927Z,102017.38
2018-05-03T20:24:04.559Z,102008.03
2018-05-03T20:26:32.259Z,102016.02
2018-05-03T20:28:59.897Z,102015.77
2018-05-03T20:31:27.587Z,102014.64
2018-05-03T20:33:55.210Z,102012.23
2018-05-03T20:36:22.822Z,102021.94
2018-05-03T20:38:50.461Z,102024.70
2018-05-03T20:41:18.125Z,102026.20
2018-05-03T20:43:45.790Z,102029.84
2018-05-03T20:46:13.481Z,102035.67
2018-05-03T20:48:41.043Z,102028.88
2018-05-03T20:51:08.670Z,102033.45
2018-05-03T20:53:36.280Z,102028.47
2018-05-03T20:56:03.917Z,102029.16
2018-05-03T20:58:31.646Z,102035.03
2018-05-03T21:00:59.285Z,102032.21
2018-05-03T21:03:26.894Z,102032.42
2018-05-03T21:05:54.523Z,102038.27
2018-05-03T21:08:22.214Z,102040.30
2018-05-03T21:10:49.847Z,102042.72
2018-05-03T21:13:17.463Z,102043.84
2018-05-03T21:15:45.095Z,102042.36
2018-05-03T21:18:12.758Z,102046.50
2018-05-03T21:20:40.387Z,102044.59
2018-05-03T21:23:08.083Z,102044.44
2018-05-03T21:25:35.711Z,102041.69
2018-05-03T21:28:03.311Z,102046.24
2018-05-03T21:30:30.970Z,102040.00
2018-05-03T21:32:58.579Z,102044.97
2018-05-03T21:35:26.208Z,102051.28
2018-05-03T21:37:53.855Z,102055.47
2018-05-03T21:40:21.481Z,102051.41
2018-05-03T21:42:49.087Z,102059.48
2018-05-03T21:45:16.715Z,102064.11
2018-05-03T21:47:44.314Z,102059.20
2018-05-03T21:50:11.946Z,102065.98
2018-05-03T21:52:39.555Z,102066.32
2018-05-03T21:55:07.186Z,102065.39
2018-05-03T21:57:34.791Z,102076.14
2018-05-03T22:00:02.412Z,102072.16
2018-05-03T22:02:30.170Z,102078.49
2018-05-03T22:04:57.782Z,102081.34
2018-05-03T22:07:25.406Z,102084.23
2018-05-03T22:09:53.058Z,102082.84
2018-05-03T22:12:20.687Z,102082.22
2018-05-03T22:14:48.287Z,102084.69
2018-05-03T22:17:15.941Z,102087.59
2018-05-03T22:19:43.554Z,102088.77
2018-05-03T22:22:11.175Z,102088.61
2018-05-03T22:24:38.782Z,102088.48
2018-05-03T22:27:06.494Z,102094.85
2018-05-03T22:29:34.093Z,102098.63
2018-05-03T22:32:01.728Z,102100.23
2018-05-03T22:34:29.378Z,102104.85
2018-05-03T22:36:57.007Z,102109.42
2018-05-03T22:39:24.707Z,102112.74
2018-05-03T22:41:52.331Z,102110.00
2018-05-03T22:44:19.939Z,102108.06
2018-05-03T22:46:47.562Z,102111.71
2018-05-03T22:49:15.179Z,102111.83
2018-05-03T22:51:42.806Z,102117.65
2018-05-03T22:54:10.419Z,102117.41
2018-05-03T22:56:38.058Z,102119.37
2018-05-03T22:59:05.658Z,102121.73
2018-05-03T23:01:33.282Z,102122.48
2018-05-03T23:04:00.933Z,102126.11
2018-05-03T23:06:28.587Z,102123.81
2018-05-03T23:08:56.190Z,102134.81
2018-05-03T23:11:23.920Z,102135.97
2018-05-03T23:13:51.565Z,102135.37
2018-05-03T23:16:19.177Z,102135.28
2018-05-03T23:18:46.811Z,102135.56
2018-05-03T23:21:14.457Z,102126.29
2018-05-03T23:23:42.118Z,102129.55
2018-05-03T23:26:09.719Z,102131.54
2018-05-03T23:28:37.442Z,102124.97
2018-05-03T23:31:05.108Z,102133.88
2018-05-03T23:33:32.735Z,102134.11
2018-05-03T23:36:00.347Z,102131.36
2018-05-03T23:38:27.976Z,102132.87
2018-05-03T23:40:55.578Z,102135.69
2018-05-03T23:43:23.323Z,102132.53
2018-05-03T23:45:50.927Z,102142.30
2018-05-03T23:48:18.548Z,102149.94
2018-05-03T23:50:46.148Z,102150.23
2018-05-03T23:53:13.779Z,102146.19
2018-05-03T23:55:41.422Z,102144.23
2018-05-03T23:58:09.054Z,102148.31
